AMQ4275 EPWR-DTMB
Flight info
| Callsign | AMQ4275 |
|---|---|
| Flight time | 2h 27m |
| Altitude | 36000 |
| Route | BNO DCT MIKOV DCT PIBIP DCT CRE DCT IBENI/N0446F370 DCT GERBU DCT OKUNO DCT RIFFI DCT RONAB DCT ERPEM DCT TUNEX UG737 CBN UM738 DIDON G727 ATLEL ATLEL1R |
| Aircraft | A320/M-SDE3FGHIRWY/LB1 |
Departure
| Time | 2026-05-05 17:23 |
|---|---|
| Airport | Copernicus Wrocław Airport (EPWR) |
Arrival
| Time | 2026-05-05 19:51 |
|---|---|
| Airport | Monastir Habib Bourguiba International Airport (DTMB) |
| Time | Latitude | Longitude | Altitude | Speed | Heading |
|---|---|---|---|---|---|
| 2026-05-05 16:44 | 51.10931 | 16.87777 | 399 ft | 0 kts | 26° |
| 2026-05-05 17:12 | 51.10928 | 16.87774 | 399 ft | 2 kts | 27° |
| 2026-05-05 17:12 | 51.10914 | 16.87763 | 399 ft | 2 kts | 26° |
| 2026-05-05 17:12 | 51.10901 | 16.87753 | 399 ft | 2 kts | 27° |
| 2026-05-05 17:13 | 51.10888 | 16.87743 | 400 ft | 2 kts | 26° |
| 2026-05-05 17:13 | 51.10879 | 16.87735 | 400 ft | 1 kts | 27° |
| 2026-05-05 17:13 | 51.10870 | 16.87733 | 400 ft | 1 kts | 329° |
| 2026-05-05 17:13 | 51.10865 | 16.87741 | 400 ft | 1 kts | 286° |
| 2026-05-05 17:14 | 51.10863 | 16.87749 | 400 ft | 0 kts | 296° |
| 2026-05-05 17:17 | 51.10936 | 16.87517 | 400 ft | 18 kts | 298° |
| 2026-05-05 17:18 | 51.10905 | 16.87388 | 402 ft | 15 kts | 193° |
| 2026-05-05 17:18 | 51.10815 | 16.87331 | 403 ft | 14 kts | 210° |
| 2026-05-05 17:18 | 51.10729 | 16.87255 | 404 ft | 13 kts | 207° |
| 2026-05-05 17:18 | 51.10660 | 16.87309 | 406 ft | 12 kts | 118° |
| 2026-05-05 17:19 | 51.10604 | 16.87491 | 404 ft | 27 kts | 115° |
| 2026-05-05 17:19 | 51.10517 | 16.87774 | 403 ft | 27 kts | 115° |
| 2026-05-05 17:19 | 51.10434 | 16.88042 | 402 ft | 26 kts | 118° |
| 2026-05-05 17:19 | 51.10389 | 16.88189 | 401 ft | 26 kts | 116° |
| 2026-05-05 17:20 | 51.10334 | 16.88373 | 399 ft | 27 kts | 114° |
| 2026-05-05 17:20 | 51.10247 | 16.88653 | 397 ft | 28 kts | 116° |
| 2026-05-05 17:20 | 51.10160 | 16.88929 | 396 ft | 27 kts | 115° |
| 2026-05-05 17:21 | 51.10079 | 16.89195 | 396 ft | 26 kts | 115° |
| 2026-05-05 17:21 | 51.10003 | 16.89445 | 399 ft | 23 kts | 115° |
| 2026-05-05 17:21 | 51.09931 | 16.89680 | 399 ft | 23 kts | 114° |
| 2026-05-05 17:22 | 51.09919 | 16.89727 | 399 ft | 5 kts | 290° |
| 2026-05-05 17:22 | 51.09938 | 16.89663 | 399 ft | 6 kts | 296° |
| 2026-05-05 17:22 | 51.09988 | 16.89500 | 399 ft | 42 kts | 296° |
| 2026-05-05 17:22 | 51.10230 | 16.88706 | 397 ft | 112 kts | 296° |
| 2026-05-05 17:23 | 51.10657 | 16.87310 | 421 ft | 164 kts | 298° |
| 2026-05-05 17:23 | 51.11156 | 16.85663 | 959 ft | 168 kts | 298° |
| 2026-05-05 17:23 | 51.11673 | 16.83985 | 1659 ft | 170 kts | 298° |
| 2026-05-05 17:23 | 51.12180 | 16.82319 | 2371 ft | 169 kts | 297° |
| 2026-05-05 17:24 | 51.12592 | 16.80490 | 2769 ft | 187 kts | 278° |
| 2026-05-05 17:24 | 51.12596 | 16.78306 | 3162 ft | 207 kts | 269° |
| 2026-05-05 17:24 | 51.12501 | 16.75900 | 3545 ft | 229 kts | 268° |
| 2026-05-05 17:24 | 51.12388 | 16.73286 | 4037 ft | 247 kts | 268° |
| 2026-05-05 17:25 | 51.12276 | 16.70478 | 4606 ft | 261 kts | 268° |
| 2026-05-05 17:25 | 51.12204 | 16.68550 | 5152 ft | 264 kts | 268° |
| 2026-05-05 17:25 | 51.12064 | 16.64644 | 6347 ft | 267 kts | 268° |
| 2026-05-05 17:25 | 51.11963 | 16.61715 | 7203 ft | 270 kts | 268° |
| 2026-05-05 17:26 | 51.11862 | 16.58725 | 8054 ft | 273 kts | 267° |
| 2026-05-05 17:26 | 51.11761 | 16.55718 | 8884 ft | 276 kts | 267° |
| 2026-05-05 17:26 | 51.11659 | 16.52667 | 9699 ft | 279 kts | 266° |
| 2026-05-05 17:26 | 51.11554 | 16.49578 | 10395 ft | 287 kts | 266° |
| 2026-05-05 17:27 | 51.11442 | 16.46303 | 10800 ft | 305 kts | 266° |
| 2026-05-05 17:27 | 51.11321 | 16.42856 | 11158 ft | 323 kts | 266° |
| 2026-05-05 17:27 | 51.11195 | 16.39204 | 11600 ft | 337 kts | 266° |
| 2026-05-05 17:27 | 51.11066 | 16.35422 | 12322 ft | 342 kts | 266° |
| 2026-05-05 17:28 | 51.10936 | 16.31666 | 13100 ft | 344 kts | 265° |
| 2026-05-05 17:28 | 51.10803 | 16.27849 | 13866 ft | 346 kts | 265° |
| 2026-05-05 17:28 | 51.10669 | 16.24045 | 14606 ft | 348 kts | 265° |
| 2026-05-05 17:28 | 51.10533 | 16.20210 | 15330 ft | 351 kts | 265° |
| 2026-05-05 17:29 | 51.10392 | 16.16318 | 16044 ft | 353 kts | 265° |
| 2026-05-05 17:29 | 51.10250 | 16.12425 | 16736 ft | 355 kts | 265° |
| 2026-05-05 17:29 | 51.10105 | 16.08497 | 17349 ft | 359 kts | 265° |
| 2026-05-05 17:29 | 51.09895 | 16.04578 | 17671 ft | 362 kts | 262° |
| 2026-05-05 17:30 | 51.09477 | 16.00644 | 17723 ft | 354 kts | 257° |
| 2026-05-05 17:30 | 51.08874 | 15.96934 | 17731 ft | 336 kts | 253° |
| 2026-05-05 17:30 | 51.08204 | 15.93483 | 17735 ft | 320 kts | 252° |
| 2026-05-05 17:30 | 51.07560 | 15.90229 | 17738 ft | 305 kts | 252° |
| 2026-05-05 17:31 | 51.06924 | 15.87026 | 17746 ft | 304 kts | 252° |
| 2026-05-05 17:31 | 51.06281 | 15.83793 | 17749 ft | 304 kts | 252° |
| 2026-05-05 17:31 | 51.05652 | 15.80629 | 17751 ft | 304 kts | 252° |
| 2026-05-05 17:31 | 51.05011 | 15.77408 | 17751 ft | 304 kts | 252° |
| 2026-05-05 17:32 | 51.04371 | 15.74196 | 17751 ft | 304 kts | 252° |
| 2026-05-05 17:32 | 51.03733 | 15.70999 | 17749 ft | 304 kts | 252° |
| 2026-05-05 17:32 | 51.03094 | 15.67798 | 17748 ft | 304 kts | 252° |
| 2026-05-05 17:32 | 51.02459 | 15.64625 | 17746 ft | 304 kts | 253° |
| 2026-05-05 17:33 | 51.01817 | 15.61421 | 17745 ft | 303 kts | 253° |
| 2026-05-05 17:33 | 51.01182 | 15.58260 | 17775 ft | 306 kts | 253° |
| 2026-05-05 17:33 | 51.00535 | 15.55045 | 18199 ft | 310 kts | 253° |
| 2026-05-05 17:33 | 50.99894 | 15.51858 | 18946 ft | 310 kts | 252° |
| 2026-05-05 17:34 | 50.99228 | 15.48556 | 19329 ft | 322 kts | 252° |
| 2026-05-05 17:34 | 50.98885 | 15.46864 | 19467 ft | 329 kts | 252° |
| 2026-05-05 17:34 | 50.98340 | 15.44188 | 19855 ft | 333 kts | 253° |
| 2026-05-05 17:35 | 50.97635 | 15.40738 | 20836 ft | 324 kts | 254° |
| 2026-05-05 17:35 | 50.96966 | 15.37453 | 21812 ft | 314 kts | 255° |
| 2026-05-05 17:35 | 50.96138 | 15.34270 | 22490 ft | 317 kts | 241° |
| 2026-05-05 17:35 | 50.94634 | 15.31609 | 23062 ft | 329 kts | 223° |
| 2026-05-05 17:36 | 50.92555 | 15.29906 | 23608 ft | 347 kts | 204° |
| 2026-05-05 17:36 | 50.90118 | 15.29441 | 24100 ft | 366 kts | 188° |
| 2026-05-05 17:36 | 50.87542 | 15.29538 | 24541 ft | 374 kts | 187° |
| 2026-05-05 17:36 | 50.84927 | 15.29694 | 24913 ft | 380 kts | 187° |
| 2026-05-05 17:37 | 50.82276 | 15.29850 | 25331 ft | 385 kts | 187° |
| 2026-05-05 17:37 | 50.79576 | 15.30000 | 25751 ft | 389 kts | 188° |
| 2026-05-05 17:37 | 50.76876 | 15.30142 | 26151 ft | 393 kts | 188° |
| 2026-05-05 17:37 | 50.74100 | 15.30280 | 26547 ft | 398 kts | 188° |
| 2026-05-05 17:38 | 50.71339 | 15.30413 | 26916 ft | 402 kts | 188° |
| 2026-05-05 17:38 | 50.68535 | 15.30547 | 27280 ft | 407 kts | 188° |
| 2026-05-05 17:38 | 50.65702 | 15.30681 | 27651 ft | 411 kts | 188° |
| 2026-05-05 17:38 | 50.62821 | 15.30816 | 28004 ft | 415 kts | 188° |
| 2026-05-05 17:39 | 50.59901 | 15.30952 | 28349 ft | 420 kts | 188° |
| 2026-05-05 17:39 | 50.56979 | 15.31088 | 28691 ft | 424 kts | 188° |
| 2026-05-05 17:39 | 50.54045 | 15.31226 | 29027 ft | 428 kts | 188° |
| 2026-05-05 17:39 | 50.51048 | 15.31365 | 29355 ft | 432 kts | 188° |
| 2026-05-05 17:40 | 50.48032 | 15.31504 | 29666 ft | 436 kts | 188° |
| 2026-05-05 17:40 | 50.44975 | 15.31645 | 29977 ft | 441 kts | 188° |
| 2026-05-05 17:40 | 50.41925 | 15.31787 | 30277 ft | 445 kts | 188° |
| 2026-05-05 17:40 | 50.38842 | 15.31930 | 30581 ft | 448 kts | 188° |
| 2026-05-05 17:41 | 50.35724 | 15.32075 | 30881 ft | 452 kts | 188° |
| 2026-05-05 17:41 | 50.32554 | 15.32221 | 31166 ft | 456 kts | 188° |
| 2026-05-05 17:41 | 50.29642 | 15.32353 | 31409 ft | 460 kts | 187° |
| 2026-05-05 17:41 | 50.26366 | 15.32503 | 31676 ft | 464 kts | 187° |
| 2026-05-05 17:42 | 50.23077 | 15.32655 | 31955 ft | 467 kts | 187° |
| 2026-05-05 17:42 | 50.19774 | 15.32806 | 32223 ft | 471 kts | 187° |
| 2026-05-05 17:42 | 50.16467 | 15.32958 | 32463 ft | 475 kts | 187° |
| 2026-05-05 17:42 | 50.13136 | 15.33110 | 32708 ft | 478 kts | 187° |
| 2026-05-05 17:43 | 50.09729 | 15.33266 | 32950 ft | 481 kts | 187° |
| 2026-05-05 17:43 | 50.06306 | 15.33422 | 33180 ft | 485 kts | 187° |
| 2026-05-05 17:43 | 50.02837 | 15.33581 | 33413 ft | 488 kts | 187° |
| 2026-05-05 17:43 | 49.99498 | 15.33734 | 33636 ft | 491 kts | 187° |
| 2026-05-05 17:44 | 49.95952 | 15.33895 | 33852 ft | 494 kts | 186° |
| 2026-05-05 17:44 | 49.92480 | 15.34053 | 34058 ft | 497 kts | 186° |
| 2026-05-05 17:44 | 49.89020 | 15.34211 | 34272 ft | 500 kts | 186° |
| 2026-05-05 17:44 | 49.85530 | 15.34374 | 34480 ft | 501 kts | 186° |
| 2026-05-05 17:45 | 49.82004 | 15.34537 | 34679 ft | 503 kts | 186° |
| 2026-05-05 17:45 | 49.74936 | 15.34863 | 34733 ft | 503 kts | 186° |
| 2026-05-05 17:46 | 49.67896 | 15.35181 | 34738 ft | 504 kts | 186° |
| 2026-05-05 17:46 | 49.60884 | 15.35500 | 34739 ft | 503 kts | 186° |
| 2026-05-05 17:47 | 49.53909 | 15.35812 | 34738 ft | 503 kts | 186° |
| 2026-05-05 17:47 | 49.46958 | 15.36121 | 34739 ft | 503 kts | 186° |
| 2026-05-05 17:48 | 49.39986 | 15.36432 | 34738 ft | 503 kts | 186° |
| 2026-05-05 17:48 | 49.32968 | 15.36741 | 34742 ft | 503 kts | 186° |
| 2026-05-05 17:49 | 49.26018 | 15.37047 | 34751 ft | 503 kts | 186° |
| 2026-05-05 17:49 | 49.19033 | 15.37352 | 34759 ft | 504 kts | 186° |
| 2026-05-05 17:50 | 49.12050 | 15.37659 | 34763 ft | 503 kts | 186° |
| 2026-05-05 17:50 | 49.05051 | 15.37951 | 34762 ft | 507 kts | 186° |
| 2026-05-05 17:51 | 48.97951 | 15.38242 | 34761 ft | 514 kts | 186° |
| 2026-05-05 17:51 | 48.90886 | 15.37401 | 34825 ft | 507 kts | 199° |
| 2026-05-05 17:51 | 48.87475 | 15.36180 | 35031 ft | 500 kts | 206° |
| 2026-05-05 17:52 | 48.84257 | 15.34491 | 35240 ft | 491 kts | 213° |
| 2026-05-05 17:52 | 48.81195 | 15.32345 | 35433 ft | 482 kts | 219° |
| 2026-05-05 17:52 | 48.78254 | 15.29956 | 35612 ft | 481 kts | 220° |
| 2026-05-05 17:52 | 48.75320 | 15.27510 | 35750 ft | 482 kts | 220° |
| 2026-05-05 17:53 | 48.72393 | 15.25078 | 35754 ft | 483 kts | 220° |
| 2026-05-05 17:53 | 48.66490 | 15.20248 | 35755 ft | 484 kts | 220° |
| 2026-05-05 17:54 | 48.60556 | 15.15456 | 35744 ft | 484 kts | 219° |
| 2026-05-05 17:54 | 48.54643 | 15.10707 | 35730 ft | 484 kts | 219° |
| 2026-05-05 17:55 | 48.48743 | 15.05986 | 35721 ft | 481 kts | 219° |
| 2026-05-05 17:55 | 48.42861 | 15.01291 | 35716 ft | 478 kts | 219° |
| 2026-05-05 17:56 | 48.37031 | 14.96649 | 35713 ft | 474 kts | 219° |
| 2026-05-05 17:56 | 48.31221 | 14.92035 | 35713 ft | 471 kts | 219° |
| 2026-05-05 17:57 | 48.25452 | 14.87465 | 35713 ft | 468 kts | 218° |
| 2026-05-05 17:57 | 48.19727 | 14.82943 | 35711 ft | 467 kts | 218° |
| 2026-05-05 17:58 | 48.13995 | 14.78425 | 35711 ft | 467 kts | 218° |
| 2026-05-05 17:58 | 48.08254 | 14.73913 | 35710 ft | 467 kts | 218° |
| 2026-05-05 17:59 | 48.02475 | 14.69380 | 35711 ft | 468 kts | 218° |
| 2026-05-05 17:59 | 47.96757 | 14.64911 | 35711 ft | 467 kts | 219° |
| 2026-05-05 18:00 | 47.90995 | 14.60414 | 35711 ft | 467 kts | 218° |
| 2026-05-05 18:00 | 47.85265 | 14.55976 | 35709 ft | 468 kts | 218° |
| 2026-05-05 18:01 | 47.79498 | 14.51527 | 35714 ft | 467 kts | 218° |
| 2026-05-05 18:01 | 47.73750 | 14.47086 | 35737 ft | 467 kts | 219° |
| 2026-05-05 18:02 | 47.68010 | 14.42655 | 35779 ft | 467 kts | 219° |
| 2026-05-05 18:02 | 47.62259 | 14.38226 | 35821 ft | 466 kts | 219° |
| 2026-05-05 18:03 | 47.56521 | 14.33813 | 35846 ft | 466 kts | 218° |
| 2026-05-05 18:03 | 47.50780 | 14.29382 | 35857 ft | 468 kts | 218° |
| 2026-05-05 18:04 | 47.44991 | 14.24945 | 35866 ft | 467 kts | 218° |
| 2026-05-05 18:04 | 47.39254 | 14.20565 | 35870 ft | 467 kts | 218° |
| 2026-05-05 18:05 | 47.33478 | 14.16169 | 35874 ft | 468 kts | 218° |
| 2026-05-05 18:05 | 47.27706 | 14.11790 | 35875 ft | 467 kts | 218° |
| 2026-05-05 18:06 | 47.21932 | 14.07417 | 35882 ft | 468 kts | 218° |
| 2026-05-05 18:06 | 47.16176 | 14.03069 | 35888 ft | 469 kts | 218° |
| 2026-05-05 18:07 | 47.10377 | 13.98702 | 35901 ft | 468 kts | 218° |
| 2026-05-05 18:07 | 47.04579 | 13.94346 | 35914 ft | 468 kts | 218° |
| 2026-05-05 18:08 | 46.98783 | 13.89996 | 35919 ft | 471 kts | 218° |
| 2026-05-05 18:08 | 46.92966 | 13.85637 | 35924 ft | 475 kts | 217° |
| 2026-05-05 18:09 | 46.87083 | 13.81253 | 35924 ft | 480 kts | 216° |
| 2026-05-05 18:09 | 46.81113 | 13.76843 | 35928 ft | 482 kts | 216° |
| 2026-05-05 18:10 | 46.75118 | 13.72405 | 35929 ft | 482 kts | 217° |
| 2026-05-05 18:10 | 46.69181 | 13.68005 | 35929 ft | 482 kts | 217° |
| 2026-05-05 18:11 | 46.63231 | 13.63601 | 35931 ft | 482 kts | 217° |
| 2026-05-05 18:11 | 46.57191 | 13.59335 | 35935 ft | 487 kts | 212° |
| 2026-05-05 18:12 | 46.50789 | 13.56039 | 35943 ft | 497 kts | 204° |
| 2026-05-05 18:12 | 46.44024 | 13.53846 | 35956 ft | 501 kts | 199° |
| 2026-05-05 18:13 | 46.37181 | 13.51862 | 35968 ft | 501 kts | 199° |
| 2026-05-05 18:13 | 46.30398 | 13.49824 | 35977 ft | 501 kts | 199° |
| 2026-05-05 18:14 | 46.23569 | 13.47765 | 35982 ft | 501 kts | 199° |
| 2026-05-05 18:14 | 46.16775 | 13.45777 | 35984 ft | 501 kts | 199° |
| 2026-05-05 18:15 | 46.09973 | 13.43841 | 35984 ft | 501 kts | 199° |
| 2026-05-05 18:15 | 46.03151 | 13.41887 | 35985 ft | 501 kts | 199° |
| 2026-05-05 18:16 | 45.96306 | 13.39912 | 35985 ft | 501 kts | 199° |
| 2026-05-05 18:16 | 45.89510 | 13.37837 | 35983 ft | 498 kts | 202° |
| 2026-05-05 18:17 | 45.83035 | 13.34792 | 35985 ft | 487 kts | 211° |
| 2026-05-05 18:17 | 45.77105 | 13.30458 | 35984 ft | 475 kts | 221° |
| 2026-05-05 18:18 | 45.71679 | 13.25199 | 35985 ft | 470 kts | 225° |
| 2026-05-05 18:18 | 45.66324 | 13.19881 | 35984 ft | 471 kts | 224° |
| 2026-05-05 18:19 | 45.60929 | 13.14639 | 35986 ft | 468 kts | 224° |
| 2026-05-05 18:19 | 45.55609 | 13.09477 | 35987 ft | 462 kts | 224° |
| 2026-05-05 18:20 | 45.50334 | 13.04356 | 35987 ft | 457 kts | 224° |
| 2026-05-05 18:20 | 45.45122 | 12.99311 | 35986 ft | 453 kts | 223° |
| 2026-05-05 18:21 | 45.39935 | 12.94311 | 35985 ft | 449 kts | 223° |
| 2026-05-05 18:21 | 45.34578 | 12.89636 | 35985 ft | 456 kts | 217° |
| 2026-05-05 18:22 | 45.28760 | 12.85916 | 35984 ft | 465 kts | 208° |
| 2026-05-05 18:22 | 45.22507 | 12.83278 | 35984 ft | 474 kts | 200° |
| 2026-05-05 18:23 | 45.16082 | 12.81289 | 35984 ft | 475 kts | 200° |
| 2026-05-05 18:23 | 45.09639 | 12.79303 | 35984 ft | 474 kts | 200° |
| 2026-05-05 18:24 | 45.03189 | 12.77288 | 35984 ft | 475 kts | 199° |
| 2026-05-05 18:24 | 44.96706 | 12.75260 | 35984 ft | 477 kts | 199° |
| 2026-05-05 18:25 | 44.90258 | 12.73254 | 35983 ft | 477 kts | 199° |
| 2026-05-05 18:25 | 44.83765 | 12.71248 | 35978 ft | 477 kts | 199° |
| 2026-05-05 18:26 | 44.77315 | 12.69259 | 35970 ft | 477 kts | 199° |
| 2026-05-05 18:26 | 44.70857 | 12.67262 | 35963 ft | 478 kts | 199° |
| 2026-05-05 18:27 | 44.64348 | 12.65252 | 35960 ft | 478 kts | 199° |
| 2026-05-05 18:27 | 44.57877 | 12.63257 | 35959 ft | 478 kts | 199° |
| 2026-05-05 18:28 | 44.48196 | 12.60280 | 35964 ft | 477 kts | 199° |
| 2026-05-05 18:28 | 44.41721 | 12.58293 | 35967 ft | 478 kts | 199° |
| 2026-05-05 18:29 | 44.35207 | 12.56299 | 35969 ft | 478 kts | 199° |
| 2026-05-05 18:29 | 44.28722 | 12.54321 | 35969 ft | 478 kts | 199° |
| 2026-05-05 18:30 | 44.22235 | 12.52345 | 35966 ft | 478 kts | 199° |
| 2026-05-05 18:30 | 44.15757 | 12.50376 | 35964 ft | 478 kts | 199° |
| 2026-05-05 18:31 | 44.09293 | 12.48416 | 35964 ft | 478 kts | 199° |
| 2026-05-05 18:31 | 44.02799 | 12.46451 | 35967 ft | 478 kts | 199° |
| 2026-05-05 18:32 | 43.96320 | 12.44495 | 35973 ft | 478 kts | 199° |
| 2026-05-05 18:32 | 43.89836 | 12.42542 | 35977 ft | 478 kts | 199° |
| 2026-05-05 18:33 | 43.83360 | 12.40608 | 35977 ft | 478 kts | 199° |
| 2026-05-05 18:33 | 43.76898 | 12.38681 | 35977 ft | 477 kts | 199° |
| 2026-05-05 18:34 | 43.70401 | 12.36739 | 35978 ft | 477 kts | 199° |
| 2026-05-05 18:34 | 43.63927 | 12.34805 | 35982 ft | 478 kts | 198° |
| 2026-05-05 18:35 | 43.57439 | 12.32845 | 35988 ft | 478 kts | 198° |
| 2026-05-05 18:35 | 43.50957 | 12.30901 | 35996 ft | 478 kts | 198° |
| 2026-05-05 18:36 | 43.44460 | 12.28968 | 36003 ft | 478 kts | 198° |
| 2026-05-05 18:36 | 43.37988 | 12.27051 | 36008 ft | 479 kts | 198° |
| 2026-05-05 18:37 | 43.31505 | 12.25138 | 36009 ft | 478 kts | 198° |
| 2026-05-05 18:37 | 43.24979 | 12.23215 | 36010 ft | 478 kts | 198° |
| 2026-05-05 18:38 | 43.18469 | 12.21301 | 36011 ft | 479 kts | 198° |
| 2026-05-05 18:38 | 43.11972 | 12.19397 | 36011 ft | 478 kts | 198° |
| 2026-05-05 18:39 | 43.05509 | 12.17502 | 36011 ft | 479 kts | 198° |
| 2026-05-05 18:39 | 42.98974 | 12.15591 | 36011 ft | 479 kts | 198° |
| 2026-05-05 18:40 | 42.92489 | 12.13695 | 36013 ft | 479 kts | 197° |
| 2026-05-05 18:40 | 42.85960 | 12.11801 | 36016 ft | 479 kts | 197° |
| 2026-05-05 18:41 | 42.79462 | 12.09925 | 36023 ft | 479 kts | 197° |
| 2026-05-05 18:41 | 42.72947 | 12.08037 | 36029 ft | 480 kts | 197° |
| 2026-05-05 18:42 | 42.66484 | 12.06016 | 36034 ft | 477 kts | 201° |
| 2026-05-05 18:42 | 42.60292 | 12.03098 | 36037 ft | 471 kts | 209° |
| 2026-05-05 18:43 | 42.54451 | 11.99140 | 36039 ft | 464 kts | 217° |
| 2026-05-05 18:43 | 42.48907 | 11.94720 | 36039 ft | 464 kts | 217° |
| 2026-05-05 18:44 | 42.43369 | 11.90329 | 36039 ft | 464 kts | 217° |
| 2026-05-05 18:44 | 42.37808 | 11.85957 | 36040 ft | 464 kts | 217° |
| 2026-05-05 18:45 | 42.32254 | 11.81609 | 36039 ft | 464 kts | 217° |
| 2026-05-05 18:45 | 42.26551 | 11.77433 | 36037 ft | 469 kts | 210° |
| 2026-05-05 18:46 | 42.20328 | 11.74690 | 36038 ft | 479 kts | 197° |
| 2026-05-05 18:46 | 42.13665 | 11.73776 | 36038 ft | 487 kts | 183° |
| 2026-05-05 18:47 | 42.06869 | 11.74260 | 36039 ft | 489 kts | 179° |
| 2026-05-05 18:47 | 42.00101 | 11.74860 | 36039 ft | 489 kts | 180° |
| 2026-05-05 18:48 | 41.93351 | 11.75400 | 36039 ft | 488 kts | 180° |
| 2026-05-05 18:48 | 41.86545 | 11.75913 | 36038 ft | 489 kts | 180° |
| 2026-05-05 18:49 | 41.79780 | 11.76417 | 36038 ft | 488 kts | 180° |
| 2026-05-05 18:49 | 41.73041 | 11.76916 | 36039 ft | 489 kts | 180° |
| 2026-05-05 18:50 | 41.66246 | 11.77420 | 36039 ft | 488 kts | 180° |
| 2026-05-05 18:50 | 41.59470 | 11.77918 | 36039 ft | 488 kts | 180° |
| 2026-05-05 18:51 | 41.52729 | 11.78413 | 36039 ft | 488 kts | 180° |
| 2026-05-05 18:51 | 41.45951 | 11.78904 | 36039 ft | 488 kts | 180° |
| 2026-05-05 18:52 | 41.39144 | 11.79400 | 36039 ft | 489 kts | 180° |
| 2026-05-05 18:52 | 41.32362 | 11.79910 | 36039 ft | 489 kts | 180° |
| 2026-05-05 18:53 | 41.25597 | 11.80414 | 36039 ft | 489 kts | 180° |
| 2026-05-05 18:53 | 41.18809 | 11.80909 | 36039 ft | 489 kts | 180° |
| 2026-05-05 18:54 | 41.12049 | 11.81399 | 36039 ft | 489 kts | 180° |
| 2026-05-05 18:54 | 41.05288 | 11.81884 | 36039 ft | 489 kts | 180° |
| 2026-05-05 18:55 | 40.98462 | 11.82371 | 36039 ft | 490 kts | 179° |
| 2026-05-05 18:55 | 40.91709 | 11.82853 | 36039 ft | 491 kts | 179° |
| 2026-05-05 18:56 | 40.84853 | 11.83343 | 36037 ft | 490 kts | 180° |
| 2026-05-05 18:56 | 40.78077 | 11.83769 | 36039 ft | 491 kts | 180° |
| 2026-05-05 18:57 | 40.71258 | 11.84174 | 36039 ft | 490 kts | 180° |
| 2026-05-05 18:57 | 40.64453 | 11.84574 | 36039 ft | 491 kts | 180° |
| 2026-05-05 18:58 | 40.57663 | 11.84977 | 36039 ft | 491 kts | 180° |
| 2026-05-05 18:58 | 40.50831 | 11.85379 | 36039 ft | 491 kts | 180° |
| 2026-05-05 18:59 | 40.44051 | 11.85779 | 36039 ft | 491 kts | 180° |
| 2026-05-05 18:59 | 40.37253 | 11.86179 | 36039 ft | 490 kts | 180° |
| 2026-05-05 19:00 | 40.30461 | 11.86576 | 36039 ft | 491 kts | 180° |
| 2026-05-05 19:00 | 40.23656 | 11.86974 | 36039 ft | 490 kts | 180° |
| 2026-05-05 19:01 | 40.16825 | 11.87370 | 36039 ft | 490 kts | 180° |
| 2026-05-05 19:01 | 40.10033 | 11.87764 | 36039 ft | 490 kts | 180° |
| 2026-05-05 19:02 | 40.03243 | 11.88154 | 36039 ft | 490 kts | 180° |
| 2026-05-05 19:02 | 39.96431 | 11.88543 | 36038 ft | 490 kts | 180° |
| 2026-05-05 19:03 | 39.89601 | 11.88784 | 36037 ft | 489 kts | 184° |
| 2026-05-05 19:03 | 39.82887 | 11.88049 | 36038 ft | 485 kts | 193° |
| 2026-05-05 19:04 | 39.76285 | 11.86381 | 36040 ft | 483 kts | 196° |
| 2026-05-05 19:04 | 39.69749 | 11.84620 | 36039 ft | 483 kts | 196° |
| 2026-05-05 19:05 | 39.63124 | 11.82867 | 36038 ft | 483 kts | 195° |
| 2026-05-05 19:05 | 39.56574 | 11.81149 | 36039 ft | 484 kts | 196° |
| 2026-05-05 19:06 | 39.49983 | 11.79429 | 36039 ft | 483 kts | 196° |
| 2026-05-05 19:06 | 39.43418 | 11.77718 | 36039 ft | 483 kts | 195° |
| 2026-05-05 19:07 | 39.36835 | 11.76005 | 36031 ft | 484 kts | 195° |
| 2026-05-05 19:07 | 39.30265 | 11.74300 | 36021 ft | 483 kts | 195° |
| 2026-05-05 19:08 | 39.23645 | 11.72584 | 36015 ft | 484 kts | 195° |
| 2026-05-05 19:08 | 39.17073 | 11.70883 | 36013 ft | 484 kts | 196° |
| 2026-05-05 19:09 | 39.10499 | 11.69183 | 36013 ft | 483 kts | 196° |
| 2026-05-05 19:09 | 39.03896 | 11.67476 | 36012 ft | 484 kts | 196° |
| 2026-05-05 19:10 | 38.97308 | 11.65774 | 36012 ft | 484 kts | 195° |
| 2026-05-05 19:10 | 38.90726 | 11.64090 | 36011 ft | 486 kts | 195° |
| 2026-05-05 19:11 | 38.84082 | 11.62417 | 36011 ft | 488 kts | 195° |
| 2026-05-05 19:11 | 38.77448 | 11.60742 | 36013 ft | 488 kts | 195° |
| 2026-05-05 19:12 | 38.70845 | 11.59065 | 36013 ft | 488 kts | 195° |
| 2026-05-05 19:12 | 38.64215 | 11.57381 | 36013 ft | 488 kts | 195° |
| 2026-05-05 19:13 | 38.57567 | 11.55694 | 36013 ft | 487 kts | 195° |
| 2026-05-05 19:13 | 38.50915 | 11.54009 | 36013 ft | 488 kts | 195° |
| 2026-05-05 19:14 | 38.44255 | 11.52324 | 36012 ft | 488 kts | 195° |
| 2026-05-05 19:14 | 38.37648 | 11.50658 | 36012 ft | 488 kts | 195° |
| 2026-05-05 19:15 | 38.31006 | 11.48982 | 36013 ft | 488 kts | 195° |
| 2026-05-05 19:15 | 38.24330 | 11.47303 | 36013 ft | 488 kts | 195° |
| 2026-05-05 19:16 | 38.17717 | 11.45642 | 36012 ft | 487 kts | 195° |
| 2026-05-05 19:16 | 38.11052 | 11.43968 | 36013 ft | 488 kts | 195° |
| 2026-05-05 19:17 | 38.04422 | 11.42304 | 36013 ft | 487 kts | 195° |
| 2026-05-05 19:17 | 37.97807 | 11.40645 | 36013 ft | 487 kts | 195° |
| 2026-05-05 19:18 | 37.91163 | 11.38915 | 36013 ft | 486 kts | 197° |
| 2026-05-05 19:18 | 37.84583 | 11.36973 | 36011 ft | 486 kts | 197° |
| 2026-05-05 19:19 | 37.78042 | 11.35024 | 36012 ft | 486 kts | 197° |
| 2026-05-05 19:19 | 37.71449 | 11.33028 | 36013 ft | 487 kts | 197° |
| 2026-05-05 19:20 | 37.64893 | 11.31060 | 36013 ft | 487 kts | 197° |
| 2026-05-05 19:20 | 37.58296 | 11.29102 | 36298 ft | 489 kts | 197° |
| 2026-05-05 19:21 | 37.55022 | 11.28137 | 36581 ft | 487 kts | 197° |
| 2026-05-05 19:21 | 37.51684 | 11.27154 | 36844 ft | 486 kts | 197° |
| 2026-05-05 19:21 | 37.48398 | 11.26183 | 36999 ft | 487 kts | 197° |
| 2026-05-05 19:21 | 37.45130 | 11.25217 | 37004 ft | 487 kts | 197° |
| 2026-05-05 19:22 | 37.38536 | 11.23270 | 37011 ft | 487 kts | 197° |
| 2026-05-05 19:22 | 37.31941 | 11.21322 | 37008 ft | 487 kts | 197° |
| 2026-05-05 19:23 | 37.25388 | 11.19392 | 37002 ft | 487 kts | 197° |
| 2026-05-05 19:23 | 37.18785 | 11.17448 | 36997 ft | 487 kts | 197° |
| 2026-05-05 19:24 | 37.12217 | 11.15519 | 36992 ft | 487 kts | 197° |
| 2026-05-05 19:24 | 37.05687 | 11.13603 | 36458 ft | 475 kts | 196° |
| 2026-05-05 19:25 | 37.02482 | 11.12660 | 35206 ft | 482 kts | 196° |
| 2026-05-05 19:25 | 36.99222 | 11.11698 | 33577 ft | 494 kts | 196° |
| 2026-05-05 19:25 | 36.95899 | 11.10723 | 32405 ft | 497 kts | 195° |
| 2026-05-05 19:25 | 36.92546 | 11.09746 | 31976 ft | 491 kts | 195° |
| 2026-05-05 19:26 | 36.89264 | 11.08794 | 31575 ft | 485 kts | 196° |
| 2026-05-05 19:26 | 36.86016 | 11.07827 | 31163 ft | 478 kts | 196° |
| 2026-05-05 19:26 | 36.82791 | 11.06841 | 30758 ft | 472 kts | 197° |
| 2026-05-05 19:26 | 36.79658 | 11.05875 | 30337 ft | 466 kts | 197° |
| 2026-05-05 19:27 | 36.76539 | 11.04912 | 29871 ft | 462 kts | 197° |
| 2026-05-05 19:27 | 36.73440 | 11.03961 | 29398 ft | 458 kts | 197° |
| 2026-05-05 19:27 | 36.70332 | 11.03011 | 28924 ft | 455 kts | 197° |
| 2026-05-05 19:27 | 36.67289 | 11.02097 | 28462 ft | 448 kts | 197° |
| 2026-05-05 19:28 | 36.64311 | 11.01212 | 27712 ft | 442 kts | 197° |
| 2026-05-05 19:28 | 36.61311 | 11.00315 | 27147 ft | 441 kts | 197° |
| 2026-05-05 19:28 | 36.58386 | 10.99440 | 26737 ft | 436 kts | 197° |
| 2026-05-05 19:28 | 36.55454 | 10.98563 | 26334 ft | 431 kts | 197° |
| 2026-05-05 19:29 | 36.52534 | 10.97688 | 25936 ft | 427 kts | 197° |
| 2026-05-05 19:29 | 36.49688 | 10.96836 | 25550 ft | 422 kts | 197° |
| 2026-05-05 19:29 | 36.46840 | 10.95983 | 25161 ft | 418 kts | 197° |
| 2026-05-05 19:29 | 36.44045 | 10.95147 | 24776 ft | 414 kts | 197° |
| 2026-05-05 19:30 | 36.41278 | 10.94318 | 24391 ft | 410 kts | 197° |
| 2026-05-05 19:30 | 36.38504 | 10.93489 | 24002 ft | 406 kts | 197° |
| 2026-05-05 19:30 | 36.35786 | 10.92677 | 23623 ft | 403 kts | 197° |
| 2026-05-05 19:30 | 36.33058 | 10.91862 | 23238 ft | 399 kts | 197° |
| 2026-05-05 19:31 | 36.30373 | 10.91061 | 22857 ft | 396 kts | 197° |
| 2026-05-05 19:31 | 36.27734 | 10.90275 | 22481 ft | 393 kts | 197° |
| 2026-05-05 19:31 | 36.25080 | 10.89485 | 22100 ft | 390 kts | 197° |
| 2026-05-05 19:31 | 36.22458 | 10.88704 | 21723 ft | 387 kts | 197° |
| 2026-05-05 19:32 | 36.19864 | 10.87932 | 21348 ft | 385 kts | 197° |
| 2026-05-05 19:32 | 36.17283 | 10.87165 | 20973 ft | 382 kts | 197° |
| 2026-05-05 19:32 | 36.14701 | 10.86398 | 20596 ft | 379 kts | 197° |
| 2026-05-05 19:32 | 36.12147 | 10.85639 | 20223 ft | 377 kts | 197° |
| 2026-05-05 19:33 | 36.09662 | 10.84812 | 19793 ft | 367 kts | 205° |
| 2026-05-05 19:33 | 36.07459 | 10.83298 | 18880 ft | 359 kts | 220° |
| 2026-05-05 19:33 | 36.05434 | 10.81543 | 17889 ft | 362 kts | 218° |
| 2026-05-05 19:33 | 36.03204 | 10.80116 | 16868 ft | 377 kts | 198° |
| 2026-05-05 19:34 | 36.00555 | 10.79981 | 16265 ft | 382 kts | 168° |
| 2026-05-05 19:34 | 35.98210 | 10.81282 | 16236 ft | 365 kts | 142° |
| 2026-05-05 19:34 | 35.96459 | 10.83439 | 16240 ft | 346 kts | 127° |
| 2026-05-05 19:35 | 35.93930 | 10.88365 | 16235 ft | 341 kts | 116° |
| 2026-05-05 19:35 | 35.92670 | 10.90872 | 16235 ft | 344 kts | 122° |
| 2026-05-05 19:35 | 35.91189 | 10.93196 | 16236 ft | 346 kts | 130° |
| 2026-05-05 19:35 | 35.89496 | 10.95274 | 16146 ft | 340 kts | 137° |
| 2026-05-05 19:36 | 35.87640 | 10.97063 | 15400 ft | 340 kts | 145° |
| 2026-05-05 19:36 | 35.85617 | 10.98568 | 14296 ft | 349 kts | 153° |
| 2026-05-05 19:36 | 35.83416 | 10.99797 | 13325 ft | 351 kts | 160° |
| 2026-05-05 19:36 | 35.81116 | 11.00710 | 12977 ft | 346 kts | 167° |
| 2026-05-05 19:37 | 35.78762 | 11.01316 | 12648 ft | 340 kts | 174° |
| 2026-05-05 19:37 | 35.76445 | 11.01595 | 12311 ft | 335 kts | 180° |
| 2026-05-05 19:37 | 35.74142 | 11.01568 | 11969 ft | 329 kts | 187° |
| 2026-05-05 19:37 | 35.71874 | 11.01241 | 11610 ft | 325 kts | 193° |
| 2026-05-05 19:38 | 35.69703 | 11.00639 | 11232 ft | 322 kts | 199° |
| 2026-05-05 19:38 | 35.67590 | 10.99764 | 10844 ft | 319 kts | 205° |
| 2026-05-05 19:38 | 35.65601 | 10.98654 | 10465 ft | 315 kts | 211° |
| 2026-05-05 19:38 | 35.63695 | 10.97295 | 10090 ft | 311 kts | 217° |
| 2026-05-05 19:39 | 35.61981 | 10.95778 | 9738 ft | 307 kts | 222° |
| 2026-05-05 19:39 | 35.60381 | 10.94049 | 9390 ft | 303 kts | 228° |
| 2026-05-05 19:39 | 35.58938 | 10.92154 | 9053 ft | 299 kts | 233° |
| 2026-05-05 19:39 | 35.57681 | 10.90151 | 8733 ft | 295 kts | 239° |
| 2026-05-05 19:40 | 35.56597 | 10.88040 | 8421 ft | 291 kts | 244° |
| 2026-05-05 19:40 | 35.55700 | 10.85877 | 8120 ft | 286 kts | 249° |
| 2026-05-05 19:40 | 35.54960 | 10.83602 | 7822 ft | 282 kts | 255° |
| 2026-05-05 19:40 | 35.54405 | 10.81317 | 7560 ft | 277 kts | 259° |
| 2026-05-05 19:41 | 35.54025 | 10.79045 | 7339 ft | 269 kts | 265° |
| 2026-05-05 19:41 | 35.53807 | 10.76754 | 7027 ft | 267 kts | 270° |
| 2026-05-05 19:41 | 35.53752 | 10.74496 | 6718 ft | 265 kts | 275° |
| 2026-05-05 19:41 | 35.53851 | 10.72251 | 6432 ft | 263 kts | 279° |
| 2026-05-05 19:42 | 35.54098 | 10.70046 | 6215 ft | 259 kts | 284° |
| 2026-05-05 19:42 | 35.54487 | 10.67903 | 5967 ft | 257 kts | 289° |
| 2026-05-05 19:42 | 35.55020 | 10.65797 | 5725 ft | 255 kts | 294° |
| 2026-05-05 19:42 | 35.55676 | 10.63800 | 5492 ft | 254 kts | 298° |
| 2026-05-05 19:43 | 35.56472 | 10.61845 | 5261 ft | 253 kts | 303° |
| 2026-05-05 19:43 | 35.57377 | 10.60012 | 5052 ft | 250 kts | 308° |
| 2026-05-05 19:43 | 35.58382 | 10.58293 | 4802 ft | 245 kts | 313° |
| 2026-05-05 19:43 | 35.59470 | 10.56712 | 4546 ft | 239 kts | 317° |
| 2026-05-05 19:44 | 35.60616 | 10.55285 | 4300 ft | 234 kts | 322° |
| 2026-05-05 19:44 | 35.61843 | 10.53971 | 4046 ft | 230 kts | 326° |
| 2026-05-05 19:44 | 35.63121 | 10.52797 | 3754 ft | 228 kts | 330° |
| 2026-05-05 19:44 | 35.64424 | 10.51771 | 3546 ft | 221 kts | 334° |
| 2026-05-05 19:45 | 35.65743 | 10.50883 | 3416 ft | 211 kts | 338° |
| 2026-05-05 19:45 | 35.67071 | 10.50139 | 3371 ft | 208 kts | 346° |
| 2026-05-05 19:45 | 35.68471 | 10.49945 | 3286 ft | 199 kts | 15° |
| 2026-05-05 19:45 | 35.69662 | 10.50678 | 3294 ft | 193 kts | 47° |
| 2026-05-05 19:46 | 35.70294 | 10.52083 | 3125 ft | 188 kts | 72° |
| 2026-05-05 19:46 | 35.70644 | 10.53579 | 3085 ft | 172 kts | 76° |
| 2026-05-05 19:46 | 35.70938 | 10.54967 | 3070 ft | 167 kts | 76° |
| 2026-05-05 19:46 | 35.71245 | 10.56366 | 2893 ft | 167 kts | 76° |
| 2026-05-05 19:47 | 35.71560 | 10.57735 | 2672 ft | 166 kts | 76° |
| 2026-05-05 19:47 | 35.71879 | 10.59085 | 2455 ft | 165 kts | 75° |
| 2026-05-05 19:47 | 35.72205 | 10.60447 | 2234 ft | 162 kts | 76° |
| 2026-05-05 19:47 | 35.72508 | 10.61703 | 2024 ft | 146 kts | 76° |
| 2026-05-05 19:48 | 35.72785 | 10.62850 | 1807 ft | 131 kts | 76° |
| 2026-05-05 19:48 | 35.73037 | 10.63898 | 1642 ft | 127 kts | 77° |
| 2026-05-05 19:48 | 35.73285 | 10.64937 | 1485 ft | 127 kts | 77° |
| 2026-05-05 19:48 | 35.73536 | 10.65984 | 1324 ft | 127 kts | 77° |
| 2026-05-05 19:49 | 35.73784 | 10.67022 | 1161 ft | 126 kts | 77° |
| 2026-05-05 19:49 | 35.74034 | 10.68066 | 991 ft | 126 kts | 77° |
| 2026-05-05 19:49 | 35.74280 | 10.69092 | 821 ft | 125 kts | 78° |
| 2026-05-05 19:49 | 35.74527 | 10.70121 | 653 ft | 125 kts | 78° |
| 2026-05-05 19:50 | 35.74775 | 10.71154 | 481 ft | 125 kts | 78° |
| 2026-05-05 19:50 | 35.75036 | 10.72161 | 323 ft | 124 kts | 77° |
| 2026-05-05 19:50 | 35.75277 | 10.73179 | 173 ft | 124 kts | 79° |
| 2026-05-05 19:50 | 35.75508 | 10.74197 | 30 ft | 122 kts | 78° |
| 2026-05-05 19:51 | 35.75708 | 10.75094 | 15 ft | 88 kts | 73° |
| 2026-05-05 19:51 | 35.75837 | 10.75613 | 13 ft | 38 kts | 76° |
| 2026-05-05 19:51 | 35.75896 | 10.75869 | 12 ft | 29 kts | 74° |
| 2026-05-05 19:51 | 35.75947 | 10.76095 | 12 ft | 19 kts | 71° |
| 2026-05-05 19:52 | 35.75997 | 10.76239 | 12 ft | 17 kts | 22° |
| 2026-05-05 19:52 | 35.76113 | 10.76218 | 12 ft | 16 kts | 326° |
| 2026-05-05 19:52 | 35.76119 | 10.76092 | 12 ft | 16 kts | 251° |
| 2026-05-05 19:52 | 35.76082 | 10.75965 | 12 ft | 15 kts | 232° |
| 2026-05-05 19:53 | 35.76032 | 10.75851 | 12 ft | 15 kts | 255° |
| 2026-05-05 19:53 | 35.76003 | 10.75730 | 14 ft | 14 kts | 252° |
| 2026-05-05 19:53 | 35.76040 | 10.75690 | 15 ft | 8 kts | 346° |
| 2026-05-05 19:53 | 35.76068 | 10.75682 | 15 ft | 0 kts | 346° |